sensor_id;sensor_type;location;lat;lon;timestamp;temperature;humidity
6098;DHT22;3077;50.922;6.584;2023-07-20T00:02:21;18.30;99.90
6098;DHT22;3077;50.922;6.584;2023-07-20T00:04:46;18.20;99.90
6098;DHT22;3077;50.922;6.584;2023-07-20T00:07:12;18.30;99.90
6098;DHT22;3077;50.922;6.584;2023-07-20T00:09:37;18.20;99.90
6098;DHT22;3077;50.922;6.584;2023-07-20T00:12:03;18.20;99.90
6098;DHT22;3077;50.922;6.584;2023-07-20T00:14:29;18.20;99.90
6098;DHT22;3077;50.922;6.584;2023-07-20T00:16:55;18.30;99.90
6098;DHT22;3077;50.922;6.584;2023-07-20T00:19:27;18.20;99.90
6098;DHT22;3077;50.922;6.584;2023-07-20T00:21:54;18.10;99.90
6098;DHT22;3077;50.922;6.584;2023-07-20T00:24:20;18.00;99.90
6098;DHT22;3077;50.922;6.584;2023-07-20T00:26:46;18.00;99.90
6098;DHT22;3077;50.922;6.584;2023-07-20T00:29:12;18.10;99.90
6098;DHT22;3077;50.922;6.584;2023-07-20T00:31:38;18.10;99.90
6098;DHT22;3077;50.922;6.584;2023-07-20T00:34:04;18.10;99.90
6098;DHT22;3077;50.922;6.584;2023-07-20T00:36:30;18.10;99.90
6098;DHT22;3077;50.922;6.584;2023-07-20T00:38:55;18.10;99.90
6098;DHT22;3077;50.922;6.584;2023-07-20T00:41:21;18.00;99.90
6098;DHT22;3077;50.922;6.584;2023-07-20T00:43:47;18.00;99.90
6098;DHT22;3077;50.922;6.584;2023-07-20T00:46:13;18.00;99.90
6098;DHT22;3077;50.922;6.584;2023-07-20T00:48:40;18.00;99.90
6098;DHT22;3077;50.922;6.584;2023-07-20T00:51:06;17.90;99.90
6098;DHT22;3077;50.922;6.584;2023-07-20T00:53:31;17.90;99.90
6098;DHT22;3077;50.922;6.584;2023-07-20T00:55:57;17.90;99.90
6098;DHT22;3077;50.922;6.584;2023-07-20T00:58:23;18.00;99.90
6098;DHT22;3077;50.922;6.584;2023-07-20T01:00:49;18.00;99.90
6098;DHT22;3077;50.922;6.584;2023-07-20T01:03:15;17.90;99.90
6098;DHT22;3077;50.922;6.584;2023-07-20T01:05:42;17.80;99.90
6098;DHT22;3077;50.922;6.584;2023-07-20T01:08:40;17.80;99.90
6098;DHT22;3077;50.922;6.584;2023-07-20T01:11:23;17.80;99.90
6098;DHT22;3077;50.922;6.584;2023-07-20T01:13:52;17.80;99.90
6098;DHT22;3077;50.922;6.584;2023-07-20T01:16:17;17.80;99.90
6098;DHT22;3077;50.922;6.584;2023-07-20T01:18:43;17.90;99.90
6098;DHT22;3077;50.922;6.584;2023-07-20T01:21:18;17.90;99.90
6098;DHT22;3077;50.922;6.584;2023-07-20T01:32:01;18.00;99.90
6098;DHT22;3077;50.922;6.584;2023-07-20T01:34:29;17.90;99.90
6098;DHT22;3077;50.922;6.584;2023-07-20T01:36:56;17.90;99.90
6098;DHT22;3077;50.922;6.584;2023-07-20T01:39:23;17.90;99.90
6098;DHT22;3077;50.922;6.584;2023-07-20T01:41:49;17.90;99.90
6098;DHT22;3077;50.922;6.584;2023-07-20T01:44:15;17.70;99.90
6098;DHT22;3077;50.922;6.584;2023-07-20T01:46:40;17.60;99.90
6098;DHT22;3077;50.922;6.584;2023-07-20T01:49:06;17.50;99.90
6098;DHT22;3077;50.922;6.584;2023-07-20T01:51:32;17.40;99.90
6098;DHT22;3077;50.922;6.584;2023-07-20T01:53:57;17.50;99.90
6098;DHT22;3077;50.922;6.584;2023-07-20T01:56:23;17.40;99.90
6098;DHT22;3077;50.922;6.584;2023-07-20T01:58:48;17.40;99.90
6098;DHT22;3077;50.922;6.584;2023-07-20T02:01:14;17.40;99.90
6098;DHT22;3077;50.922;6.584;2023-07-20T02:03:39;17.40;99.90
6098;DHT22;3077;50.922;6.584;2023-07-20T02:06:05;17.40;99.90
6098;DHT22;3077;50.922;6.584;2023-07-20T02:08:30;17.30;99.90
6098;DHT22;3077;50.922;6.584;2023-07-20T02:10:56;17.00;99.90
6098;DHT22;3077;50.922;6.584;2023-07-20T02:13:22;17.20;99.90
6098;DHT22;3077;50.922;6.584;2023-07-20T02:15:47;17.10;99.90
6098;DHT22;3077;50.922;6.584;2023-07-20T02:18:14;17.00;99.90
6098;DHT22;3077;50.922;6.584;2023-07-20T02:20:41;17.00;99.90
6098;DHT22;3077;50.922;6.584;2023-07-20T02:23:06;17.10;99.90
6098;DHT22;3077;50.922;6.584;2023-07-20T02:25:32;17.00;99.90
6098;DHT22;3077;50.922;6.584;2023-07-20T02:27:58;17.00;99.90
6098;DHT22;3077;50.922;6.584;2023-07-20T02:30:24;17.00;99.90
6098;DHT22;3077;50.922;6.584;2023-07-20T02:32:49;17.00;99.90
6098;DHT22;3077;50.922;6.584;2023-07-20T02:35:15;17.00;99.90
6098;DHT22;3077;50.922;6.584;2023-07-20T02:37:41;17.10;99.90
6098;DHT22;3077;50.922;6.584;2023-07-20T02:40:07;17.10;99.90
6098;DHT22;3077;50.922;6.584;2023-07-20T02:42:34;17.10;99.90
6098;DHT22;3077;50.922;6.584;2023-07-20T02:45:00;17.20;99.90
6098;DHT22;3077;50.922;6.584;2023-07-20T02:47:25;17.30;99.90
6098;DHT22;3077;50.922;6.584;2023-07-20T02:49:51;17.30;99.90
6098;DHT22;3077;50.922;6.584;2023-07-20T02:52:17;17.20;99.90
6098;DHT22;3077;50.922;6.584;2023-07-20T02:54:42;17.30;99.90
6098;DHT22;3077;50.922;6.584;2023-07-20T02:57:08;17.20;99.90
6098;DHT22;3077;50.922;6.584;2023-07-20T02:59:33;17.20;99.90
6098;DHT22;3077;50.922;6.584;2023-07-20T03:01:59;17.20;99.90
6098;DHT22;3077;50.922;6.584;2023-07-20T03:04:27;17.10;99.90
6098;DHT22;3077;50.922;6.584;2023-07-20T03:06:53;17.10;99.90
6098;DHT22;3077;50.922;6.584;2023-07-20T03:09:19;17.10;99.90
6098;DHT22;3077;50.922;6.584;2023-07-20T03:11:44;17.10;99.90
6098;DHT22;3077;50.922;6.584;2023-07-20T03:14:10;17.00;99.90
6098;DHT22;3077;50.922;6.584;2023-07-20T03:16:36;17.00;99.90
6098;DHT22;3077;50.922;6.584;2023-07-20T03:19:02;17.00;99.90
6098;DHT22;3077;50.922;6.584;2023-07-20T03:21:27;17.00;99.90
6098;DHT22;3077;50.922;6.584;2023-07-20T03:23:54;16.90;99.90
6098;DHT22;3077;50.922;6.584;2023-07-20T03:26:19;16.90;99.90
6098;DHT22;3077;50.922;6.584;2023-07-20T03:28:45;16.80;99.90
6098;DHT22;3077;50.922;6.584;2023-07-20T03:31:11;16.80;99.90
6098;DHT22;3077;50.922;6.584;2023-07-20T03:33:36;16.80;99.90
6098;DHT22;3077;50.922;6.584;2023-07-20T03:36:02;16.80;99.90
6098;DHT22;3077;50.922;6.584;2023-07-20T03:38:28;16.80;99.90
6098;DHT22;3077;50.922;6.584;2023-07-20T03:40:56;16.90;99.90
6098;DHT22;3077;50.922;6.584;2023-07-20T03:43:23;16.80;99.90
6098;DHT22;3077;50.922;6.584;2023-07-20T03:45:49;16.90;99.90
6098;DHT22;3077;50.922;6.584;2023-07-20T03:48:21;16.90;99.90
6098;DHT22;3077;50.922;6.584;2023-07-20T03:50:49;16.80;99.90
6098;DHT22;3077;50.922;6.584;2023-07-20T03:53:15;16.80;99.90
6098;DHT22;3077;50.922;6.584;2023-07-20T03:55:46;16.80;99.90
6098;DHT22;3077;50.922;6.584;2023-07-20T03:58:12;16.80;99.90
6098;DHT22;3077;50.922;6.584;2023-07-20T04:00:38;16.80;99.90
6098;DHT22;3077;50.922;6.584;2023-07-20T04:03:03;16.80;99.90
6098;DHT22;3077;50.922;6.584;2023-07-20T04:05:29;16.80;99.90
6098;DHT22;3077;50.922;6.584;2023-07-20T04:07:55;16.80;99.90
6098;DHT22;3077;50.922;6.584;2023-07-20T04:10:21;16.80;99.90
6098;DHT22;3077;50.922;6.584;2023-07-20T04:12:46;16.90;99.90
6098;DHT22;3077;50.922;6.584;2023-07-20T04:15:13;16.90;99.90
6098;DHT22;3077;50.922;6.584;2023-07-20T04:17:39;16.90;99.90
6098;DHT22;3077;50.922;6.584;2023-07-20T04:20:06;16.90;99.90
6098;DHT22;3077;50.922;6.584;2023-07-20T04:22:32;17.00;99.90
6098;DHT22;3077;50.922;6.584;2023-07-20T04:24:58;17.00;99.90
6098;DHT22;3077;50.922;6.584;2023-07-20T04:27:23;17.00;99.90
6098;DHT22;3077;50.922;6.584;2023-07-20T04:29:49;17.10;99.90
6098;DHT22;3077;50.922;6.584;2023-07-20T04:32:15;17.10;99.90
6098;DHT22;3077;50.922;6.584;2023-07-20T04:34:40;17.20;99.90
6098;DHT22;3077;50.922;6.584;2023-07-20T04:37:06;17.20;99.90
6098;DHT22;3077;50.922;6.584;2023-07-20T04:39:32;17.20;99.90
6098;DHT22;3077;50.922;6.584;2023-07-20T04:41:57;17.10;99.90
6098;DHT22;3077;50.922;6.584;2023-07-20T04:44:23;17.20;99.90
6098;DHT22;3077;50.922;6.584;2023-07-20T04:46:49;17.20;99.90
6098;DHT22;3077;50.922;6.584;2023-07-20T04:49:15;17.20;99.90
6098;DHT22;3077;50.922;6.584;2023-07-20T04:51:41;17.10;99.90
6098;DHT22;3077;50.922;6.584;2023-07-20T04:54:06;17.10;99.90
6098;DHT22;3077;50.922;6.584;2023-07-20T04:56:32;17.10;99.90
6098;DHT22;3077;50.922;6.584;2023-07-20T04:58:58;17.20;99.90
6098;DHT22;3077;50.922;6.584;2023-07-20T05:01:24;17.20;99.90
6098;DHT22;3077;50.922;6.584;2023-07-20T05:03:50;17.20;99.90
6098;DHT22;3077;50.922;6.584;2023-07-20T05:06:15;17.20;99.90
6098;DHT22;3077;50.922;6.584;2023-07-20T05:08:41;17.20;99.90
6098;DHT22;3077;50.922;6.584;2023-07-20T05:11:07;17.30;99.90
6098;DHT22;3077;50.922;6.584;2023-07-20T05:13:33;17.30;99.90
6098;DHT22;3077;50.922;6.584;2023-07-20T05:15:58;17.30;99.90
6098;DHT22;3077;50.922;6.584;2023-07-20T05:18:24;17.40;99.90
6098;DHT22;3077;50.922;6.584;2023-07-20T05:20:50;17.40;99.90
6098;DHT22;3077;50.922;6.584;2023-07-20T05:23:17;17.40;99.90
6098;DHT22;3077;50.922;6.584;2023-07-20T05:25:43;17.30;99.90
6098;DHT22;3077;50.922;6.584;2023-07-20T05:28:09;17.30;99.90
6098;DHT22;3077;50.922;6.584;2023-07-20T05:30:34;17.30;99.90
6098;DHT22;3077;50.922;6.584;2023-07-20T05:33:00;17.40;99.90
6098;DHT22;3077;50.922;6.584;2023-07-20T05:35:26;17.30;99.90
6098;DHT22;3077;50.922;6.584;2023-07-20T05:37:52;17.30;99.90
6098;DHT22;3077;50.922;6.584;2023-07-20T05:40:17;17.40;99.90
6098;DHT22;3077;50.922;6.584;2023-07-20T05:42:45;17.50;99.90
6098;DHT22;3077;50.922;6.584;2023-07-20T05:45:11;17.60;99.90
6098;DHT22;3077;50.922;6.584;2023-07-20T05:47:37;17.60;99.90
6098;DHT22;3077;50.922;6.584;2023-07-20T05:50:03;17.60;99.90
6098;DHT22;3077;50.922;6.584;2023-07-20T05:52:29;17.60;99.90
6098;DHT22;3077;50.922;6.584;2023-07-20T05:54:54;17.70;99.90
6098;DHT22;3077;50.922;6.584;2023-07-20T05:57:20;17.70;99.90
6098;DHT22;3077;50.922;6.584;2023-07-20T05:59:46;17.80;99.90
6098;DHT22;3077;50.922;6.584;2023-07-20T06:02:12;17.90;99.90
6098;DHT22;3077;50.922;6.584;2023-07-20T06:04:39;18.00;99.90
6098;DHT22;3077;50.922;6.584;2023-07-20T06:07:05;17.90;99.90
6098;DHT22;3077;50.922;6.584;2023-07-20T06:09:30;17.80;99.90
6098;DHT22;3077;50.922;6.584;2023-07-20T06:11:56;17.70;99.90
6098;DHT22;3077;50.922;6.584;2023-07-20T06:14:22;17.60;99.90
6098;DHT22;3077;50.922;6.584;2023-07-20T06:16:47;17.60;99.90
6098;DHT22;3077;50.922;6.584;2023-07-20T06:19:13;17.60;99.90
6098;DHT22;3077;50.922;6.584;2023-07-20T06:21:39;17.60;99.90
6098;DHT22;3077;50.922;6.584;2023-07-20T06:24:05;17.70;99.90
6098;DHT22;3077;50.922;6.584;2023-07-20T06:26:32;17.80;99.90
6098;DHT22;3077;50.922;6.584;2023-07-20T06:29:03;17.80;99.90
6098;DHT22;3077;50.922;6.584;2023-07-20T06:31:29;17.90;99.90
6098;DHT22;3077;50.922;6.584;2023-07-20T06:33:54;17.90;99.90
6098;DHT22;3077;50.922;6.584;2023-07-20T06:36:20;18.00;99.90
6098;DHT22;3077;50.922;6.584;2023-07-20T06:38:46;18.10;99.90
6098;DHT22;3077;50.922;6.584;2023-07-20T06:41:11;18.20;99.90
6098;DHT22;3077;50.922;6.584;2023-07-20T06:43:37;18.30;99.90
6098;DHT22;3077;50.922;6.584;2023-07-20T06:46:03;18.40;99.90
6098;DHT22;3077;50.922;6.584;2023-07-20T06:48:28;18.50;99.90
6098;DHT22;3077;50.922;6.584;2023-07-20T06:50:55;18.60;99.90
6098;DHT22;3077;50.922;6.584;2023-07-20T06:53:20;18.70;99.90
6098;DHT22;3077;50.922;6.584;2023-07-20T06:55:46;18.80;99.90
6098;DHT22;3077;50.922;6.584;2023-07-20T06:58:11;18.90;99.90
6098;DHT22;3077;50.922;6.584;2023-07-20T07:00:37;19.00;99.90
6098;DHT22;3077;50.922;6.584;2023-07-20T07:03:03;19.10;99.90
6098;DHT22;3077;50.922;6.584;2023-07-20T07:05:28;18.90;99.90
6098;DHT22;3077;50.922;6.584;2023-07-20T07:07:54;19.00;99.90
6098;DHT22;3077;50.922;6.584;2023-07-20T07:10:19;18.90;99.90
6098;DHT22;3077;50.922;6.584;2023-07-20T07:12:45;18.90;99.90
6098;DHT22;3077;50.922;6.584;2023-07-20T07:15:10;18.90;99.90
6098;DHT22;3077;50.922;6.584;2023-07-20T07:17:36;19.10;99.90
6098;DHT22;3077;50.922;6.584;2023-07-20T07:20:02;19.00;99.90
6098;DHT22;3077;50.922;6.584;2023-07-20T07:22:29;18.80;99.90
6098;DHT22;3077;50.922;6.584;2023-07-20T07:24:55;19.00;99.90
6098;DHT22;3077;50.922;6.584;2023-07-20T07:27:20;19.10;99.90
6098;DHT22;3077;50.922;6.584;2023-07-20T07:29:46;19.20;99.90
6098;DHT22;3077;50.922;6.584;2023-07-20T07:32:12;19.40;99.90
6098;DHT22;3077;50.922;6.584;2023-07-20T07:34:38;19.40;99.90
6098;DHT22;3077;50.922;6.584;2023-07-20T07:37:04;19.40;99.90
6098;DHT22;3077;50.922;6.584;2023-07-20T07:39:30;19.20;99.90
6098;DHT22;3077;50.922;6.584;2023-07-20T07:41:56;19.20;99.90
6098;DHT22;3077;50.922;6.584;2023-07-20T07:44:22;19.20;99.90
6098;DHT22;3077;50.922;6.584;2023-07-20T07:46:48;19.40;99.90
6098;DHT22;3077;50.922;6.584;2023-07-20T07:49:14;19.60;99.90
6098;DHT22;3077;50.922;6.584;2023-07-20T07:51:40;19.60;99.90
6098;DHT22;3077;50.922;6.584;2023-07-20T07:54:05;19.60;99.90
6098;DHT22;3077;50.922;6.584;2023-07-20T07:56:31;19.50;99.90
6098;DHT22;3077;50.922;6.584;2023-07-20T07:58:57;19.40;99.90
6098;DHT22;3077;50.922;6.584;2023-07-20T08:01:22;19.70;99.90
6098;DHT22;3077;50.922;6.584;2023-07-20T08:03:48;19.90;99.90
6098;DHT22;3077;50.922;6.584;2023-07-20T08:06:14;20.20;99.90
6098;DHT22;3077;50.922;6.584;2023-07-20T08:08:40;20.40;99.90
6098;DHT22;3077;50.922;6.584;2023-07-20T08:11:05;20.60;99.90
6098;DHT22;3077;50.922;6.584;2023-07-20T08:13:31;20.50;99.90
6098;DHT22;3077;50.922;6.584;2023-07-20T08:15:58;20.40;99.90
6098;DHT22;3077;50.922;6.584;2023-07-20T08:18:23;20.40;99.90
6098;DHT22;3077;50.922;6.584;2023-07-20T08:20:49;20.20;99.90
6098;DHT22;3077;50.922;6.584;2023-07-20T08:23:15;19.70;99.90
6098;DHT22;3077;50.922;6.584;2023-07-20T08:25:41;19.70;99.90
6098;DHT22;3077;50.922;6.584;2023-07-20T08:28:16;19.80;99.90
6098;DHT22;3077;50.922;6.584;2023-07-20T08:30:45;19.80;99.90
6098;DHT22;3077;50.922;6.584;2023-07-20T08:33:12;19.90;99.90
6098;DHT22;3077;50.922;6.584;2023-07-20T08:35:38;19.90;99.90
6098;DHT22;3077;50.922;6.584;2023-07-20T08:38:04;20.20;99.90
6098;DHT22;3077;50.922;6.584;2023-07-20T08:40:31;20.40;99.90
6098;DHT22;3077;50.922;6.584;2023-07-20T08:42:59;20.70;99.90
6098;DHT22;3077;50.922;6.584;2023-07-20T08:45:27;20.60;99.90
6098;DHT22;3077;50.922;6.584;2023-07-20T08:47:56;20.70;99.90
6098;DHT22;3077;50.922;6.584;2023-07-20T08:50:25;20.80;99.90
6098;DHT22;3077;50.922;6.584;2023-07-20T08:52:52;20.90;99.90
6098;DHT22;3077;50.922;6.584;2023-07-20T08:55:22;20.90;99.90
6098;DHT22;3077;50.922;6.584;2023-07-20T08:57:50;20.50;99.90
6098;DHT22;3077;50.922;6.584;2023-07-20T09:00:17;20.30;99.90
6098;DHT22;3077;50.922;6.584;2023-07-20T09:02:45;20.20;99.90
6098;DHT22;3077;50.922;6.584;2023-07-20T09:05:11;20.20;99.90
6098;DHT22;3077;50.922;6.584;2023-07-20T09:07:42;20.40;99.90
6098;DHT22;3077;50.922;6.584;2023-07-20T09:10:07;20.80;99.90
6098;DHT22;3077;50.922;6.584;2023-07-20T09:12:41;21.10;99.90
6098;DHT22;3077;50.922;6.584;2023-07-20T09:15:08;21.40;99.90
6098;DHT22;3077;50.922;6.584;2023-07-20T09:17:34;21.60;99.90
6098;DHT22;3077;50.922;6.584;2023-07-20T09:20:04;21.90;99.90
6098;DHT22;3077;50.922;6.584;2023-07-20T09:22:36;22.30;99.90
6098;DHT22;3077;50.922;6.584;2023-07-20T09:25:06;22.60;99.90
6098;DHT22;3077;50.922;6.584;2023-07-20T09:27:37;22.60;99.90
6098;DHT22;3077;50.922;6.584;2023-07-20T09:30:03;22.40;99.90
6098;DHT22;3077;50.922;6.584;2023-07-20T09:32:29;21.90;99.90
6098;DHT22;3077;50.922;6.584;2023-07-20T09:34:55;21.50;99.90
6098;DHT22;3077;50.922;6.584;2023-07-20T09:37:23;21.30;99.90
6098;DHT22;3077;50.922;6.584;2023-07-20T09:39:51;21.40;99.90
6098;DHT22;3077;50.922;6.584;2023-07-20T09:42:18;21.30;99.90
6098;DHT22;3077;50.922;6.584;2023-07-20T09:44:44;21.30;99.90
6098;DHT22;3077;50.922;6.584;2023-07-20T09:47:10;21.60;99.90
6098;DHT22;3077;50.922;6.584;2023-07-20T09:49:42;21.80;99.90
6098;DHT22;3077;50.922;6.584;2023-07-20T09:52:11;21.90;99.90
6098;DHT22;3077;50.922;6.584;2023-07-20T09:54:38;21.90;99.90
6098;DHT22;3077;50.922;6.584;2023-07-20T09:57:07;22.20;99.90
6098;DHT22;3077;50.922;6.584;2023-07-20T09:59:34;22.30;99.90
6098;DHT22;3077;50.922;6.584;2023-07-20T10:02:02;22.40;99.90
6098;DHT22;3077;50.922;6.584;2023-07-20T10:04:29;22.80;99.90
6098;DHT22;3077;50.922;6.584;2023-07-20T10:06:55;22.90;99.90
6098;DHT22;3077;50.922;6.584;2023-07-20T10:09:24;22.80;99.90
6098;DHT22;3077;50.922;6.584;2023-07-20T10:11:51;22.60;99.90
6098;DHT22;3077;50.922;6.584;2023-07-20T10:14:20;22.50;99.90
6098;DHT22;3077;50.922;6.584;2023-07-20T10:16:55;22.60;99.90
6098;DHT22;3077;50.922;6.584;2023-07-20T10:19:27;22.90;99.90
6098;DHT22;3077;50.922;6.584;2023-07-20T10:22:15;23.30;99.90
6098;DHT22;3077;50.922;6.584;2023-07-20T10:24:45;23.60;98.80
6098;DHT22;3077;50.922;6.584;2023-07-20T10:27:12;23.60;98.00
6098;DHT22;3077;50.922;6.584;2023-07-20T10:29:39;22.90;93.70
6098;DHT22;3077;50.922;6.584;2023-07-20T10:32:05;22.50;95.70
6098;DHT22;3077;50.922;6.584;2023-07-20T10:34:32;22.50;98.60
6098;DHT22;3077;50.922;6.584;2023-07-20T10:36:59;22.70;96.00
6098;DHT22;3077;50.922;6.584;2023-07-20T10:39:25;23.10;91.50
6098;DHT22;3077;50.922;6.584;2023-07-20T10:42:00;23.40;91.30
6098;DHT22;3077;50.922;6.584;2023-07-20T10:44:27;23.60;91.30
6098;DHT22;3077;50.922;6.584;2023-07-20T10:47:17;23.90;87.10
6098;DHT22;3077;50.922;6.584;2023-07-20T10:49:58;24.20;77.40
6098;DHT22;3077;50.922;6.584;2023-07-20T10:52:25;24.00;77.60
6098;DHT22;3077;50.922;6.584;2023-07-20T10:54:51;24.10;68.10
6098;DHT22;3077;50.922;6.584;2023-07-20T10:57:28;24.20;62.40
6098;DHT22;3077;50.922;6.584;2023-07-20T11:00:10;24.60;64.90
6098;DHT22;3077;50.922;6.584;2023-07-20T11:02:49;24.80;57.30
6098;DHT22;3077;50.922;6.584;2023-07-20T11:05:35;24.80;55.00
6098;DHT22;3077;50.922;6.584;2023-07-20T11:08:09;24.80;58.90
6098;DHT22;3077;50.922;6.584;2023-07-20T11:10:35;24.80;59.90
6098;DHT22;3077;50.922;6.584;2023-07-20T11:13:19;24.60;56.00
6098;DHT22;3077;50.922;6.584;2023-07-20T11:15:47;24.60;59.50
6098;DHT22;3077;50.922;6.584;2023-07-20T11:18:13;24.90;54.10
6098;DHT22;3077;50.922;6.584;2023-07-20T11:20:40;25.10;51.20
6098;DHT22;3077;50.922;6.584;2023-07-20T11:23:06;25.40;53.60
6098;DHT22;3077;50.922;6.584;2023-07-20T11:25:39;25.60;42.90
6098;DHT22;3077;50.922;6.584;2023-07-20T11:28:09;25.60;37.80
6098;DHT22;3077;50.922;6.584;2023-07-20T11:30:38;25.40;37.60
6098;DHT22;3077;50.922;6.584;2023-07-20T11:33:04;25.30;40.50
6098;DHT22;3077;50.922;6.584;2023-07-20T11:35:34;25.40;41.70
6098;DHT22;3077;50.922;6.584;2023-07-20T11:38:00;25.70;37.60
6098;DHT22;3077;50.922;6.584;2023-07-20T11:40:25;26.10;35.70
6098;DHT22;3077;50.922;6.584;2023-07-20T11:42:51;26.10;37.90
6098;DHT22;3077;50.922;6.584;2023-07-20T11:45:17;25.50;39.30
6098;DHT22;3077;50.922;6.584;2023-07-20T11:47:43;24.70;43.60
6098;DHT22;3077;50.922;6.584;2023-07-20T11:50:09;24.30;43.00
6098;DHT22;3077;50.922;6.584;2023-07-20T11:52:36;24.10;35.90
6098;DHT22;3077;50.922;6.584;2023-07-20T11:55:03;23.60;37.90
6098;DHT22;3077;50.922;6.584;2023-07-20T11:57:29;23.30;40.00
6098;DHT22;3077;50.922;6.584;2023-07-20T12:00:00;23.60;43.90
6098;DHT22;3077;50.922;6.584;2023-07-20T12:02:28;23.50;42.60
6098;DHT22;3077;50.922;6.584;2023-07-20T12:04:57;23.70;46.50
6098;DHT22;3077;50.922;6.584;2023-07-20T12:07:25;24.10;47.90
6098;DHT22;3077;50.922;6.584;2023-07-20T12:10:10;24.50;43.90
6098;DHT22;3077;50.922;6.584;2023-07-20T12:12:43;24.70;42.70
6098;DHT22;3077;50.922;6.584;2023-07-20T12:15:17;24.60;41.40
6098;DHT22;3077;50.922;6.584;2023-07-20T12:17:49;24.50;45.50
6098;DHT22;3077;50.922;6.584;2023-07-20T12:20:34;24.30;41.70
6098;DHT22;3077;50.922;6.584;2023-07-20T12:23:11;24.10;41.80
6098;DHT22;3077;50.922;6.584;2023-07-20T12:25:37;24.00;44.60
6098;DHT22;3077;50.922;6.584;2023-07-20T12:28:06;24.00;45.10
6098;DHT22;3077;50.922;6.584;2023-07-20T12:30:32;23.70;43.50
6098;DHT22;3077;50.922;6.584;2023-07-20T12:32:57;23.30;45.70
6098;DHT22;3077;50.922;6.584;2023-07-20T12:35:23;23.10;48.60
6098;DHT22;3077;50.922;6.584;2023-07-20T12:40:17;23.00;53.60
6098;DHT22;3077;50.922;6.584;2023-07-20T12:42:42;23.10;51.60
6098;DHT22;3077;50.922;6.584;2023-07-20T12:45:08;23.30;53.50
6098;DHT22;3077;50.922;6.584;2023-07-20T12:47:34;23.30;59.00
6098;DHT22;3077;50.922;6.584;2023-07-20T12:50:00;22.90;52.20
6098;DHT22;3077;50.922;6.584;2023-07-20T12:52:35;22.80;56.30
6098;DHT22;3077;50.922;6.584;2023-07-20T12:55:02;22.90;52.10
6098;DHT22;3077;50.922;6.584;2023-07-20T12:57:27;22.80;50.40
6098;DHT22;3077;50.922;6.584;2023-07-20T12:59:53;22.80;51.00
6098;DHT22;3077;50.922;6.584;2023-07-20T13:02:19;22.70;50.50
6098;DHT22;3077;50.922;6.584;2023-07-20T13:04:44;22.70;52.10
6098;DHT22;3077;50.922;6.584;2023-07-20T13:07:10;22.70;53.40
6098;DHT22;3077;50.922;6.584;2023-07-20T13:09:38;22.70;51.40
6098;DHT22;3077;50.922;6.584;2023-07-20T13:12:04;22.90;51.30
6098;DHT22;3077;50.922;6.584;2023-07-20T13:14:30;23.10;51.10
6098;DHT22;3077;50.922;6.584;2023-07-20T13:16:56;23.20;53.10
6098;DHT22;3077;50.922;6.584;2023-07-20T13:19:22;23.30;57.00
6098;DHT22;3077;50.922;6.584;2023-07-20T13:21:47;23.90;52.80
6098;DHT22;3077;50.922;6.584;2023-07-20T13:24:13;24.00;41.90
6098;DHT22;3077;50.922;6.584;2023-07-20T13:26:39;24.00;40.90
6098;DHT22;3077;50.922;6.584;2023-07-20T13:29:04;24.00;46.10
6098;DHT22;3077;50.922;6.584;2023-07-20T13:31:30;24.10;42.10
6098;DHT22;3077;50.922;6.584;2023-07-20T13:33:55;24.40;45.80
6098;DHT22;3077;50.922;6.584;2023-07-20T13:36:22;24.40;43.10
6098;DHT22;3077;50.922;6.584;2023-07-20T13:38:48;24.40;42.60
6098;DHT22;3077;50.922;6.584;2023-07-20T13:41:14;24.40;43.00
6098;DHT22;3077;50.922;6.584;2023-07-20T13:43:40;25.10;40.40
6098;DHT22;3077;50.922;6.584;2023-07-20T13:46:06;26.00;37.10
6098;DHT22;3077;50.922;6.584;2023-07-20T13:48:31;27.00;30.70
6098;DHT22;3077;50.922;6.584;2023-07-20T13:50:57;28.10;25.80
6098;DHT22;3077;50.922;6.584;2023-07-20T13:53:23;28.60;22.10
6098;DHT22;3077;50.922;6.584;2023-07-20T13:55:48;29.00;18.40
6098;DHT22;3077;50.922;6.584;2023-07-20T13:58:14;30.10;12.10
6098;DHT22;3077;50.922;6.584;2023-07-20T14:00:40;30.40;6.20
6098;DHT22;3077;50.922;6.584;2023-07-20T14:03:06;30.00;8.20
6098;DHT22;3077;50.922;6.584;2023-07-20T14:05:31;29.20;9.50
6098;DHT22;3077;50.922;6.584;2023-07-20T14:07:57;28.10;11.20
6098;DHT22;3077;50.922;6.584;2023-07-20T14:10:22;27.60;10.80
6098;DHT22;3077;50.922;6.584;2023-07-20T14:12:48;28.30;7.80
6098;DHT22;3077;50.922;6.584;2023-07-20T14:15:14;29.00;8.90
6098;DHT22;3077;50.922;6.584;2023-07-20T14:17:39;29.60;7.50
6098;DHT22;3077;50.922;6.584;2023-07-20T14:20:05;30.00;3.70
6098;DHT22;3077;50.922;6.584;2023-07-20T14:22:31;30.10;3.80
6098;DHT22;3077;50.922;6.584;2023-07-20T14:24:57;30.40;4.40
6098;DHT22;3077;50.922;6.584;2023-07-20T14:27:23;30.70;1.60
6098;DHT22;3077;50.922;6.584;2023-07-20T14:29:49;31.00;1.80
6098;DHT22;3077;50.922;6.584;2023-07-20T14:32:14;31.00;1.50
6098;DHT22;3077;50.922;6.584;2023-07-20T14:34:40;29.60;3.40
6098;DHT22;3077;50.922;6.584;2023-07-20T14:37:06;29.50;4.00
6098;DHT22;3077;50.922;6.584;2023-07-20T14:39:32;29.60;4.20
6098;DHT22;3077;50.922;6.584;2023-07-20T14:41:58;29.60;2.10
6098;DHT22;3077;50.922;6.584;2023-07-20T14:44:24;30.10;1.00
6098;DHT22;3077;50.922;6.584;2023-07-20T14:46:50;30.00;2.50
6098;DHT22;3077;50.922;6.584;2023-07-20T14:49:16;29.00;3.60
6098;DHT22;3077;50.922;6.584;2023-07-20T14:51:42;28.60;3.20
6098;DHT22;3077;50.922;6.584;2023-07-20T14:54:12;28.40;3.20
6098;DHT22;3077;50.922;6.584;2023-07-20T14:56:38;28.60;3.90
6098;DHT22;3077;50.922;6.584;2023-07-20T14:59:05;28.70;4.30
6098;DHT22;3077;50.922;6.584;2023-07-20T15:01:31;28.20;5.30
6098;DHT22;3077;50.922;6.584;2023-07-20T15:03:57;27.90;4.80
6098;DHT22;3077;50.922;6.584;2023-07-20T15:06:23;28.40;4.70
6098;DHT22;3077;50.922;6.584;2023-07-20T15:08:48;28.20;3.50
6098;DHT22;3077;50.922;6.584;2023-07-20T15:11:14;28.20;5.40
6098;DHT22;3077;50.922;6.584;2023-07-20T15:13:40;28.40;6.70
6098;DHT22;3077;50.922;6.584;2023-07-20T15:16:08;27.90;4.80
6098;DHT22;3077;50.922;6.584;2023-07-20T15:18:35;28.10;5.30
6098;DHT22;3077;50.922;6.584;2023-07-20T15:21:01;28.50;5.70
6098;DHT22;3077;50.922;6.584;2023-07-20T15:23:26;29.10;3.50
6098;DHT22;3077;50.922;6.584;2023-07-20T15:25:52;29.80;2.30
6098;DHT22;3077;50.922;6.584;2023-07-20T15:28:17;29.70;1.00
6098;DHT22;3077;50.922;6.584;2023-07-20T15:30:43;29.50;1.00
6098;DHT22;3077;50.922;6.584;2023-07-20T15:33:08;30.40;1.00
6098;DHT22;3077;50.922;6.584;2023-07-20T15:35:34;30.10;1.00
6098;DHT22;3077;50.922;6.584;2023-07-20T15:38:00;29.40;1.00
6098;DHT22;3077;50.922;6.584;2023-07-20T15:40:25;29.50;1.40
6098;DHT22;3077;50.922;6.584;2023-07-20T15:42:51;30.60;1.00
6098;DHT22;3077;50.922;6.584;2023-07-20T15:45:17;31.80;1.00
6098;DHT22;3077;50.922;6.584;2023-07-20T15:47:42;33.10;1.00
6098;DHT22;3077;50.922;6.584;2023-07-20T15:50:09;34.10;1.00
6098;DHT22;3077;50.922;6.584;2023-07-20T15:52:35;35.00;1.00
6098;DHT22;3077;50.922;6.584;2023-07-20T15:55:00;35.80;1.00
6098;DHT22;3077;50.922;6.584;2023-07-20T15:57:26;36.60;1.00
6098;DHT22;3077;50.922;6.584;2023-07-20T15:59:51;36.20;1.00
6098;DHT22;3077;50.922;6.584;2023-07-20T16:02:17;35.20;1.00
6098;DHT22;3077;50.922;6.584;2023-07-20T16:04:43;35.40;1.00
6098;DHT22;3077;50.922;6.584;2023-07-20T16:07:11;34.80;1.00
6098;DHT22;3077;50.922;6.584;2023-07-20T16:09:36;34.80;1.00
6098;DHT22;3077;50.922;6.584;2023-07-20T16:12:03;33.30;1.00
6098;DHT22;3077;50.922;6.584;2023-07-20T16:14:29;32.40;1.00